sensor_id;sensor_type;location;lat;lon;timestamp;P1;durP1;ratioP1;P2;durP2;ratioP2
6828;SDS011;17930;48.592;8.868;2024-02-21T00:01:34;9.85;;;4.97;;
6828;SDS011;17930;48.592;8.868;2024-02-21T00:04:01;9.23;;;4.25;;
6828;SDS011;17930;48.592;8.868;2024-02-21T00:06:27;10.50;;;4.30;;
6828;SDS011;17930;48.592;8.868;2024-02-21T00:08:55;9.50;;;4.03;;
6828;SDS011;17930;48.592;8.868;2024-02-21T00:11:22;9.05;;;4.30;;
6828;SDS011;17930;48.592;8.868;2024-02-21T00:13:49;11.25;;;4.22;;
6828;SDS011;17930;48.592;8.868;2024-02-21T00:16:16;9.88;;;4.32;;
6828;SDS011;17930;48.592;8.868;2024-02-21T00:18:43;11.27;;;5.10;;
6828;SDS011;17930;48.592;8.868;2024-02-21T00:21:10;8.93;;;3.83;;
6828;SDS011;17930;48.592;8.868;2024-02-21T00:23:40;6.95;;;3.67;;
6828;SDS011;17930;48.592;8.868;2024-02-21T00:26:08;15.20;;;4.70;;
6828;SDS011;17930;48.592;8.868;2024-02-21T00:28:35;9.63;;;4.55;;
6828;SDS011;17930;48.592;8.868;2024-02-21T00:31:02;8.48;;;4.95;;
6828;SDS011;17930;48.592;8.868;2024-02-21T00:33:29;8.90;;;4.78;;
6828;SDS011;17930;48.592;8.868;2024-02-21T00:35:55;17.80;;;4.72;;
6828;SDS011;17930;48.592;8.868;2024-02-21T00:38:22;13.65;;;4.32;;
6828;SDS011;17930;48.592;8.868;2024-02-21T00:40:49;9.52;;;4.50;;
6828;SDS011;17930;48.592;8.868;2024-02-21T00:43:17;7.68;;;4.65;;
6828;SDS011;17930;48.592;8.868;2024-02-21T00:45:44;12.73;;;4.30;;
6828;SDS011;17930;48.592;8.868;2024-02-21T00:48:10;7.20;;;3.85;;
6828;SDS011;17930;48.592;8.868;2024-02-21T00:50:37;7.30;;;3.50;;
6828;SDS011;17930;48.592;8.868;2024-02-21T00:53:04;12.95;;;4.22;;
6828;SDS011;17930;48.592;8.868;2024-02-21T00:55:31;7.80;;;3.85;;
6828;SDS011;17930;48.592;8.868;2024-02-21T00:57:58;8.95;;;3.72;;
6828;SDS011;17930;48.592;8.868;2024-02-21T01:00:26;9.00;;;4.20;;
6828;SDS011;17930;48.592;8.868;2024-02-21T01:02:53;8.75;;;4.55;;
6828;SDS011;17930;48.592;8.868;2024-02-21T01:05:20;9.45;;;3.85;;
6828;SDS011;17930;48.592;8.868;2024-02-21T01:07:47;12.32;;;4.18;;
6828;SDS011;17930;48.592;8.868;2024-02-21T01:10:14;7.13;;;3.90;;
6828;SDS011;17930;48.592;8.868;2024-02-21T01:12:42;9.38;;;3.20;;
6828;SDS011;17930;48.592;8.868;2024-02-21T01:15:09;7.35;;;3.80;;
6828;SDS011;17930;48.592;8.868;2024-02-21T01:17:38;8.70;;;3.95;;
6828;SDS011;17930;48.592;8.868;2024-02-21T01:20:06;9.93;;;4.05;;
6828;SDS011;17930;48.592;8.868;2024-02-21T01:22:33;7.78;;;4.45;;
6828;SDS011;17930;48.592;8.868;2024-02-21T01:25:00;10.88;;;4.00;;
6828;SDS011;17930;48.592;8.868;2024-02-21T01:27:27;5.90;;;3.03;;
6828;SDS011;17930;48.592;8.868;2024-02-21T01:29:53;8.15;;;3.85;;
6828;SDS011;17930;48.592;8.868;2024-02-21T01:32:20;4.97;;;3.10;;
6828;SDS011;17930;48.592;8.868;2024-02-21T01:34:51;12.70;;;4.20;;
6828;SDS011;17930;48.592;8.868;2024-02-21T01:37:18;7.93;;;4.00;;
6828;SDS011;17930;48.592;8.868;2024-02-21T01:39:44;8.48;;;3.50;;
6828;SDS011;17930;48.592;8.868;2024-02-21T01:42:11;11.30;;;4.30;;
6828;SDS011;17930;48.592;8.868;2024-02-21T01:44:38;8.48;;;3.15;;
6828;SDS011;17930;48.592;8.868;2024-02-21T01:47:04;8.25;;;3.65;;
6828;SDS011;17930;48.592;8.868;2024-02-21T01:49:32;4.57;;;2.88;;
6828;SDS011;17930;48.592;8.868;2024-02-21T01:52:00;9.20;;;3.65;;
6828;SDS011;17930;48.592;8.868;2024-02-21T01:54:28;6.68;;;3.67;;
6828;SDS011;17930;48.592;8.868;2024-02-21T01:56:55;9.05;;;3.60;;
6828;SDS011;17930;48.592;8.868;2024-02-21T01:59:22;7.90;;;3.55;;
6828;SDS011;17930;48.592;8.868;2024-02-21T02:01:50;10.40;;;3.97;;
6828;SDS011;17930;48.592;8.868;2024-02-21T02:04:18;7.78;;;2.90;;
6828;SDS011;17930;48.592;8.868;2024-02-21T02:06:46;7.53;;;2.78;;
6828;SDS011;17930;48.592;8.868;2024-02-21T02:09:14;8.73;;;3.80;;
6828;SDS011;17930;48.592;8.868;2024-02-21T02:11:42;10.02;;;3.72;;
6828;SDS011;17930;48.592;8.868;2024-02-21T02:14:09;11.30;;;4.05;;
6828;SDS011;17930;48.592;8.868;2024-02-21T02:16:35;6.72;;;2.85;;
6828;SDS011;17930;48.592;8.868;2024-02-21T02:19:02;6.15;;;2.50;;
6828;SDS011;17930;48.592;8.868;2024-02-21T02:21:30;8.18;;;3.10;;
6828;SDS011;17930;48.592;8.868;2024-02-21T02:24:02;9.02;;;3.67;;
6828;SDS011;17930;48.592;8.868;2024-02-21T02:26:30;7.75;;;3.42;;
6828;SDS011;17930;48.592;8.868;2024-02-21T02:28:57;7.70;;;3.22;;
6828;SDS011;17930;48.592;8.868;2024-02-21T02:31:23;7.32;;;3.67;;
6828;SDS011;17930;48.592;8.868;2024-02-21T02:33:50;11.95;;;3.58;;
6828;SDS011;17930;48.592;8.868;2024-02-21T02:36:17;12.63;;;3.88;;
6828;SDS011;17930;48.592;8.868;2024-02-21T02:38:43;11.77;;;3.88;;
6828;SDS011;17930;48.592;8.868;2024-02-21T02:41:12;7.43;;;3.15;;
6828;SDS011;17930;48.592;8.868;2024-02-21T02:43:39;6.40;;;3.70;;
6828;SDS011;17930;48.592;8.868;2024-02-21T02:46:05;6.05;;;2.65;;
6828;SDS011;17930;48.592;8.868;2024-02-21T02:48:32;9.25;;;3.45;;
6828;SDS011;17930;48.592;8.868;2024-02-21T02:50:59;5.60;;;2.58;;
6828;SDS011;17930;48.592;8.868;2024-02-21T02:53:26;5.95;;;3.03;;
6828;SDS011;17930;48.592;8.868;2024-02-21T02:55:53;8.65;;;2.85;;
6828;SDS011;17930;48.592;8.868;2024-02-21T02:58:21;10.23;;;3.08;;
6828;SDS011;17930;48.592;8.868;2024-02-21T03:00:48;7.53;;;3.33;;
6828;SDS011;17930;48.592;8.868;2024-02-21T03:03:15;9.90;;;4.10;;
6828;SDS011;17930;48.592;8.868;2024-02-21T03:05:41;10.10;;;2.95;;
6828;SDS011;17930;48.592;8.868;2024-02-21T03:08:08;9.30;;;3.00;;
6828;SDS011;17930;48.592;8.868;2024-02-21T03:10:35;9.15;;;3.38;;
6828;SDS011;17930;48.592;8.868;2024-02-21T03:13:02;8.98;;;3.17;;
6828;SDS011;17930;48.592;8.868;2024-02-21T03:15:31;7.30;;;3.33;;
6828;SDS011;17930;48.592;8.868;2024-02-21T03:17:58;8.73;;;2.72;;
6828;SDS011;17930;48.592;8.868;2024-02-21T03:20:25;7.40;;;3.05;;
6828;SDS011;17930;48.592;8.868;2024-02-21T03:22:52;6.78;;;3.25;;
6828;SDS011;17930;48.592;8.868;2024-02-21T03:25:19;4.88;;;2.20;;
6828;SDS011;17930;48.592;8.868;2024-02-21T03:27:46;6.57;;;2.90;;
6828;SDS011;17930;48.592;8.868;2024-02-21T03:30:12;7.22;;;2.95;;
6828;SDS011;17930;48.592;8.868;2024-02-21T03:32:41;8.05;;;3.53;;
6828;SDS011;17930;48.592;8.868;2024-02-21T03:35:08;5.32;;;2.67;;
6828;SDS011;17930;48.592;8.868;2024-02-21T03:37:34;6.93;;;3.30;;
6828;SDS011;17930;48.592;8.868;2024-02-21T03:40:01;7.70;;;2.58;;
6828;SDS011;17930;48.592;8.868;2024-02-21T03:42:28;8.65;;;3.00;;
6828;SDS011;17930;48.592;8.868;2024-02-21T03:44:56;4.68;;;2.05;;
6828;SDS011;17930;48.592;8.868;2024-02-21T03:47:23;8.07;;;2.75;;
6828;SDS011;17930;48.592;8.868;2024-02-21T03:49:51;5.32;;;2.50;;
6828;SDS011;17930;48.592;8.868;2024-02-21T03:52:18;9.40;;;3.20;;
6828;SDS011;17930;48.592;8.868;2024-02-21T03:54:45;13.10;;;5.93;;
6828;SDS011;17930;48.592;8.868;2024-02-21T03:57:12;8.05;;;3.65;;
6828;SDS011;17930;48.592;8.868;2024-02-21T03:59:38;6.88;;;2.72;;
6828;SDS011;17930;48.592;8.868;2024-02-21T04:02:05;9.15;;;3.17;;
6828;SDS011;17930;48.592;8.868;2024-02-21T04:04:34;11.18;;;2.88;;
6828;SDS011;17930;48.592;8.868;2024-02-21T04:07:03;8.80;;;3.42;;
6828;SDS011;17930;48.592;8.868;2024-02-21T04:09:32;7.47;;;3.20;;
6828;SDS011;17930;48.592;8.868;2024-02-21T04:11:59;6.13;;;2.85;;
6828;SDS011;17930;48.592;8.868;2024-02-21T04:14:27;7.68;;;3.00;;
6828;SDS011;17930;48.592;8.868;2024-02-21T04:16:54;9.43;;;2.95;;
6828;SDS011;17930;48.592;8.868;2024-02-21T04:19:21;7.65;;;2.22;;
6828;SDS011;17930;48.592;8.868;2024-02-21T04:21:47;10.27;;;2.75;;
6828;SDS011;17930;48.592;8.868;2024-02-21T04:24:16;6.38;;;2.65;;
6828;SDS011;17930;48.592;8.868;2024-02-21T04:26:42;8.10;;;2.45;;
6828;SDS011;17930;48.592;8.868;2024-02-21T04:29:09;9.63;;;2.97;;
6828;SDS011;17930;48.592;8.868;2024-02-21T04:31:36;6.40;;;2.80;;
6828;SDS011;17930;48.592;8.868;2024-02-21T04:34:03;8.00;;;3.50;;
6828;SDS011;17930;48.592;8.868;2024-02-21T04:36:31;7.03;;;3.80;;
6828;SDS011;17930;48.592;8.868;2024-02-21T04:38:58;9.98;;;3.28;;
6828;SDS011;17930;48.592;8.868;2024-02-21T04:41:26;6.45;;;2.83;;
6828;SDS011;17930;48.592;8.868;2024-02-21T04:43:52;11.10;;;2.78;;
6828;SDS011;17930;48.592;8.868;2024-02-21T04:46:19;8.55;;;2.90;;
6828;SDS011;17930;48.592;8.868;2024-02-21T04:48:46;5.50;;;2.63;;
6828;SDS011;17930;48.592;8.868;2024-02-21T04:51:12;7.60;;;2.70;;
6828;SDS011;17930;48.592;8.868;2024-02-21T04:53:39;7.57;;;3.13;;
6828;SDS011;17930;48.592;8.868;2024-02-21T04:56:06;7.35;;;2.70;;
6828;SDS011;17930;48.592;8.868;2024-02-21T04:58:37;4.18;;;2.90;;
6828;SDS011;17930;48.592;8.868;2024-02-21T05:01:04;5.82;;;2.53;;
6828;SDS011;17930;48.592;8.868;2024-02-21T05:03:30;10.60;;;2.83;;
6828;SDS011;17930;48.592;8.868;2024-02-21T05:05:58;7.70;;;2.53;;
6828;SDS011;17930;48.592;8.868;2024-02-21T05:08:25;4.82;;;2.40;;
6828;SDS011;17930;48.592;8.868;2024-02-21T05:10:52;6.82;;;2.55;;
6828;SDS011;17930;48.592;8.868;2024-02-21T05:13:19;5.65;;;2.15;;
6828;SDS011;17930;48.592;8.868;2024-02-21T05:15:47;4.68;;;2.38;;
6828;SDS011;17930;48.592;8.868;2024-02-21T05:18:13;8.48;;;2.25;;
6828;SDS011;17930;48.592;8.868;2024-02-21T05:20:40;6.28;;;2.80;;
6828;SDS011;17930;48.592;8.868;2024-02-21T05:23:08;6.60;;;2.80;;
6828;SDS011;17930;48.592;8.868;2024-02-21T05:25:34;4.82;;;2.10;;
6828;SDS011;17930;48.592;8.868;2024-02-21T05:28:01;7.32;;;3.20;;
6828;SDS011;17930;48.592;8.868;2024-02-21T05:30:28;7.72;;;3.15;;
6828;SDS011;17930;48.592;8.868;2024-02-21T05:32:57;6.90;;;2.50;;
6828;SDS011;17930;48.592;8.868;2024-02-21T05:35:25;7.07;;;2.45;;
6828;SDS011;17930;48.592;8.868;2024-02-21T05:37:53;8.82;;;2.40;;
6828;SDS011;17930;48.592;8.868;2024-02-21T05:40:20;4.32;;;2.25;;
6828;SDS011;17930;48.592;8.868;2024-02-21T05:42:46;3.25;;;2.13;;
6828;SDS011;17930;48.592;8.868;2024-02-21T05:45:13;4.75;;;2.50;;
6828;SDS011;17930;48.592;8.868;2024-02-21T05:47:40;5.63;;;2.13;;
6828;SDS011;17930;48.592;8.868;2024-02-21T05:50:09;6.60;;;2.47;;
6828;SDS011;17930;48.592;8.868;2024-02-21T05:52:36;6.63;;;2.63;;
6828;SDS011;17930;48.592;8.868;2024-02-21T05:55:03;10.07;;;3.15;;
6828;SDS011;17930;48.592;8.868;2024-02-21T05:57:32;7.60;;;2.53;;
6828;SDS011;17930;48.592;8.868;2024-02-21T05:59:59;7.38;;;2.70;;
6828;SDS011;17930;48.592;8.868;2024-02-21T06:02:27;6.88;;;3.22;;
6828;SDS011;17930;48.592;8.868;2024-02-21T06:04:54;14.80;;;4.22;;
6828;SDS011;17930;48.592;8.868;2024-02-21T06:07:22;6.72;;;2.50;;
6828;SDS011;17930;48.592;8.868;2024-02-21T06:09:49;5.07;;;2.58;;
6828;SDS011;17930;48.592;8.868;2024-02-21T06:12:15;9.05;;;3.38;;
6828;SDS011;17930;48.592;8.868;2024-02-21T06:14:42;14.18;;;3.78;;
6828;SDS011;17930;48.592;8.868;2024-02-21T06:17:09;11.18;;;3.45;;
6828;SDS011;17930;48.592;8.868;2024-02-21T06:19:36;6.70;;;2.80;;
6828;SDS011;17930;48.592;8.868;2024-02-21T06:22:02;5.28;;;2.80;;
6828;SDS011;17930;48.592;8.868;2024-02-21T06:24:34;5.20;;;2.40;;
6828;SDS011;17930;48.592;8.868;2024-02-21T06:27:01;9.60;;;2.90;;
6828;SDS011;17930;48.592;8.868;2024-02-21T06:29:28;8.07;;;2.50;;
6828;SDS011;17930;48.592;8.868;2024-02-21T06:31:55;9.90;;;3.33;;
6828;SDS011;17930;48.592;8.868;2024-02-21T06:34:21;6.22;;;2.58;;
6828;SDS011;17930;48.592;8.868;2024-02-21T06:36:49;7.70;;;2.67;;
6828;SDS011;17930;48.592;8.868;2024-02-21T06:39:16;4.32;;;2.30;;
6828;SDS011;17930;48.592;8.868;2024-02-21T06:41:44;5.78;;;2.60;;
6828;SDS011;17930;48.592;8.868;2024-02-21T06:44:12;7.35;;;2.95;;
6828;SDS011;17930;48.592;8.868;2024-02-21T06:46:38;9.32;;;2.72;;
6828;SDS011;17930;48.592;8.868;2024-02-21T06:49:05;6.88;;;2.75;;
6828;SDS011;17930;48.592;8.868;2024-02-21T06:51:32;3.75;;;2.05;;
6828;SDS011;17930;48.592;8.868;2024-02-21T06:53:59;3.60;;;2.13;;
6828;SDS011;17930;48.592;8.868;2024-02-21T06:56:26;8.35;;;2.50;;
6828;SDS011;17930;48.592;8.868;2024-02-21T06:58:55;4.57;;;2.40;;
6828;SDS011;17930;48.592;8.868;2024-02-21T07:01:22;7.35;;;3.17;;
6828;SDS011;17930;48.592;8.868;2024-02-21T07:03:49;7.15;;;2.97;;
6828;SDS011;17930;48.592;8.868;2024-02-21T07:06:16;10.80;;;2.97;;
6828;SDS011;17930;48.592;8.868;2024-02-21T07:08:42;6.22;;;3.72;;
6828;SDS011;17930;48.592;8.868;2024-02-21T07:11:09;6.50;;;2.78;;
6828;SDS011;17930;48.592;8.868;2024-02-21T07:13:37;5.88;;;2.45;;
6828;SDS011;17930;48.592;8.868;2024-02-21T07:16:06;5.63;;;2.25;;
6828;SDS011;17930;48.592;8.868;2024-02-21T07:18:33;6.30;;;2.33;;
6828;SDS011;17930;48.592;8.868;2024-02-21T07:21:00;4.03;;;2.53;;
6828;SDS011;17930;48.592;8.868;2024-02-21T07:23:26;3.65;;;2.42;;
6828;SDS011;17930;48.592;8.868;2024-02-21T07:25:53;6.90;;;2.45;;
6828;SDS011;17930;48.592;8.868;2024-02-21T07:28:20;8.80;;;2.50;;
6828;SDS011;17930;48.592;8.868;2024-02-21T07:30:45;5.57;;;2.50;;
6828;SDS011;17930;48.592;8.868;2024-02-21T07:33:13;6.47;;;2.53;;
6828;SDS011;17930;48.592;8.868;2024-02-21T07:35:40;5.60;;;2.50;;
6828;SDS011;17930;48.592;8.868;2024-02-21T07:38:09;6.47;;;2.90;;
6828;SDS011;17930;48.592;8.868;2024-02-21T07:40:37;6.50;;;2.58;;
6828;SDS011;17930;48.592;8.868;2024-02-21T07:43:04;7.50;;;2.50;;
6828;SDS011;17930;48.592;8.868;2024-02-21T07:45:31;7.60;;;2.50;;
6828;SDS011;17930;48.592;8.868;2024-02-21T07:47:57;13.18;;;5.75;;
6828;SDS011;17930;48.592;8.868;2024-02-21T07:50:26;10.87;;;3.70;;
6828;SDS011;17930;48.592;8.868;2024-02-21T07:52:52;11.43;;;5.30;;
6828;SDS011;17930;48.592;8.868;2024-02-21T07:55:19;12.47;;;4.23;;
6828;SDS011;17930;48.592;8.868;2024-02-21T07:57:46;7.13;;;3.00;;
6828;SDS011;17930;48.592;8.868;2024-02-21T08:00:13;6.17;;;2.60;;
6828;SDS011;17930;48.592;8.868;2024-02-21T08:02:45;7.13;;;2.80;;
6828;SDS011;17930;48.592;8.868;2024-02-21T08:05:12;6.90;;;3.00;;
6828;SDS011;17930;48.592;8.868;2024-02-21T08:07:40;7.00;;;2.90;;
6828;SDS011;17930;48.592;8.868;2024-02-21T08:10:07;7.13;;;2.90;;
6828;SDS011;17930;48.592;8.868;2024-02-21T08:12:34;8.50;;;2.90;;
6828;SDS011;17930;48.592;8.868;2024-02-21T08:15:01;5.20;;;2.70;;
6828;SDS011;17930;48.592;8.868;2024-02-21T08:17:29;5.00;;;2.37;;
6828;SDS011;17930;48.592;8.868;2024-02-21T08:19:56;4.03;;;2.17;;
6828;SDS011;17930;48.592;8.868;2024-02-21T08:22:23;6.30;;;2.67;;
6828;SDS011;17930;48.592;8.868;2024-02-21T08:24:51;10.60;;;2.70;;
6828;SDS011;17930;48.592;8.868;2024-02-21T08:27:19;10.47;;;2.90;;
6828;SDS011;17930;48.592;8.868;2024-02-21T08:29:45;7.03;;;2.57;;
6828;SDS011;17930;48.592;8.868;2024-02-21T08:32:12;6.73;;;2.53;;
6828;SDS011;17930;48.592;8.868;2024-02-21T08:34:39;7.10;;;2.40;;
6828;SDS011;17930;48.592;8.868;2024-02-21T08:37:06;5.00;;;2.70;;
6828;SDS011;17930;48.592;8.868;2024-02-21T08:39:33;5.10;;;2.53;;
6828;SDS011;17930;48.592;8.868;2024-02-21T08:42:01;3.77;;;1.90;;
6828;SDS011;17930;48.592;8.868;2024-02-21T08:44:28;6.03;;;2.60;;
6828;SDS011;17930;48.592;8.868;2024-02-21T08:46:55;7.77;;;2.67;;
6828;SDS011;17930;48.592;8.868;2024-02-21T08:49:22;6.87;;;2.90;;
6828;SDS011;17930;48.592;8.868;2024-02-21T08:51:49;7.70;;;3.07;;
6828;SDS011;17930;48.592;8.868;2024-02-21T08:54:15;5.47;;;2.40;;
6828;SDS011;17930;48.592;8.868;2024-02-21T08:56:42;4.27;;;2.50;;
6828;SDS011;17930;48.592;8.868;2024-02-21T08:59:11;10.63;;;3.27;;
6828;SDS011;17930;48.592;8.868;2024-02-21T09:01:37;6.27;;;3.00;;
6828;SDS011;17930;48.592;8.868;2024-02-21T09:04:04;8.40;;;3.00;;
6828;SDS011;17930;48.592;8.868;2024-02-21T09:06:31;6.33;;;2.77;;
6828;SDS011;17930;48.592;8.868;2024-02-21T09:09:01;10.97;;;2.40;;
6828;SDS011;17930;48.592;8.868;2024-02-21T09:11:29;6.30;;;2.07;;
6828;SDS011;17930;48.592;8.868;2024-02-21T09:13:55;5.63;;;2.20;;
6828;SDS011;17930;48.592;8.868;2024-02-21T09:16:23;6.53;;;2.47;;
6828;SDS011;17930;48.592;8.868;2024-02-21T09:18:50;3.80;;;1.70;;
6828;SDS011;17930;48.592;8.868;2024-02-21T09:21:18;6.63;;;2.07;;
6828;SDS011;17930;48.592;8.868;2024-02-21T09:23:47;4.83;;;2.27;;
6828;SDS011;17930;48.592;8.868;2024-02-21T09:26:14;9.27;;;2.20;;
6828;SDS011;17930;48.592;8.868;2024-02-21T09:28:42;4.03;;;2.40;;
6828;SDS011;17930;48.592;8.868;2024-02-21T09:31:09;5.10;;;2.60;;
6828;SDS011;17930;48.592;8.868;2024-02-21T09:33:37;6.37;;;2.80;;
6828;SDS011;17930;48.592;8.868;2024-02-21T09:36:05;6.20;;;2.60;;
6828;SDS011;17930;48.592;8.868;2024-02-21T09:38:32;8.13;;;2.70;;
6828;SDS011;17930;48.592;8.868;2024-02-21T09:41:00;6.23;;;2.53;;
6828;SDS011;17930;48.592;8.868;2024-02-21T09:43:37;8.37;;;2.50;;
6828;SDS011;17930;48.592;8.868;2024-02-21T09:46:06;5.40;;;2.77;;
6828;SDS011;17930;48.592;8.868;2024-02-21T09:48:42;5.73;;;2.30;;
6828;SDS011;17930;48.592;8.868;2024-02-21T09:51:22;5.17;;;2.63;;
6828;SDS011;17930;48.592;8.868;2024-02-21T09:53:49;7.13;;;2.50;;
6828;SDS011;17930;48.592;8.868;2024-02-21T09:56:17;6.67;;;3.13;;
6828;SDS011;17930;48.592;8.868;2024-02-21T09:58:44;6.83;;;1.90;;
6828;SDS011;17930;48.592;8.868;2024-02-21T10:01:12;6.67;;;2.43;;
6828;SDS011;17930;48.592;8.868;2024-02-21T10:03:39;3.83;;;1.83;;
6828;SDS011;17930;48.592;8.868;2024-02-21T10:06:07;4.20;;;2.10;;
6828;SDS011;17930;48.592;8.868;2024-02-21T10:08:34;4.03;;;1.53;;
6828;SDS011;17930;48.592;8.868;2024-02-21T10:11:01;5.03;;;1.70;;
6828;SDS011;17930;48.592;8.868;2024-02-21T10:13:29;3.20;;;2.07;;
6828;SDS011;17930;48.592;8.868;2024-02-21T10:16:02;2.40;;;1.50;;
6828;SDS011;17930;48.592;8.868;2024-02-21T10:18:30;3.13;;;1.37;;
6828;SDS011;17930;48.592;8.868;2024-02-21T10:21:03;4.70;;;1.60;;
6828;SDS011;17930;48.592;8.868;2024-02-21T10:23:43;5.53;;;1.93;;
6828;SDS011;17930;48.592;8.868;2024-02-21T10:26:10;2.93;;;1.77;;
6828;SDS011;17930;48.592;8.868;2024-02-21T10:28:37;5.20;;;2.27;;
6828;SDS011;17930;48.592;8.868;2024-02-21T10:31:07;4.00;;;1.77;;
6828;SDS011;17930;48.592;8.868;2024-02-21T10:33:35;4.63;;;1.90;;
6828;SDS011;17930;48.592;8.868;2024-02-21T10:36:06;7.70;;;2.73;;
6828;SDS011;17930;48.592;8.868;2024-02-21T10:38:34;5.93;;;1.70;;
6828;SDS011;17930;48.592;8.868;2024-02-21T10:41:03;6.70;;;1.97;;
6828;SDS011;17930;48.592;8.868;2024-02-21T10:43:33;3.37;;;1.40;;
6828;SDS011;17930;48.592;8.868;2024-02-21T10:46:05;6.60;;;1.80;;
6828;SDS011;17930;48.592;8.868;2024-02-21T10:48:37;3.73;;;1.53;;
6828;SDS011;17930;48.592;8.868;2024-02-21T10:51:12;3.20;;;1.80;;
6828;SDS011;17930;48.592;8.868;2024-02-21T10:53:44;3.57;;;1.37;;
6828;SDS011;17930;48.592;8.868;2024-02-21T10:56:18;2.60;;;1.77;;
6828;SDS011;17930;48.592;8.868;2024-02-21T10:58:49;4.90;;;1.90;;
6828;SDS011;17930;48.592;8.868;2024-02-21T11:01:17;5.13;;;1.80;;
6828;SDS011;17930;48.592;8.868;2024-02-21T11:03:45;3.80;;;1.83;;
6828;SDS011;17930;48.592;8.868;2024-02-21T11:06:15;3.23;;;1.30;;
6828;SDS011;17930;48.592;8.868;2024-02-21T11:08:44;3.67;;;1.50;;
6828;SDS011;17930;48.592;8.868;2024-02-21T11:11:12;5.10;;;2.20;;
6828;SDS011;17930;48.592;8.868;2024-02-21T11:13:44;3.93;;;1.43;;
6828;SDS011;17930;48.592;8.868;2024-02-21T11:16:11;5.23;;;1.97;;
6828;SDS011;17930;48.592;8.868;2024-02-21T11:18:47;3.33;;;1.70;;
6828;SDS011;17930;48.592;8.868;2024-02-21T11:21:14;4.40;;;1.50;;
6828;SDS011;17930;48.592;8.868;2024-02-21T11:23:41;4.80;;;1.77;;
6828;SDS011;17930;48.592;8.868;2024-02-21T11:26:08;3.23;;;1.50;;
6828;SDS011;17930;48.592;8.868;2024-02-21T11:28:34;3.63;;;1.63;;
6828;SDS011;17930;48.592;8.868;2024-02-21T11:31:10;5.07;;;1.80;;
6828;SDS011;17930;48.592;8.868;2024-02-21T11:33:40;4.80;;;2.17;;
6828;SDS011;17930;48.592;8.868;2024-02-21T11:36:07;5.90;;;1.60;;
6828;SDS011;17930;48.592;8.868;2024-02-21T11:38:34;4.33;;;1.63;;
6828;SDS011;17930;48.592;8.868;2024-02-21T11:41:01;4.47;;;2.20;;
6828;SDS011;17930;48.592;8.868;2024-02-21T11:43:28;5.50;;;2.60;;
6828;SDS011;17930;48.592;8.868;2024-02-21T11:45:59;3.83;;;2.17;;
6828;SDS011;17930;48.592;8.868;2024-02-21T11:48:28;5.43;;;1.90;;
6828;SDS011;17930;48.592;8.868;2024-02-21T11:50:55;4.37;;;2.20;;
6828;SDS011;17930;48.592;8.868;2024-02-21T11:53:22;3.20;;;1.90;;
6828;SDS011;17930;48.592;8.868;2024-02-21T11:55:50;6.20;;;3.73;;
6828;SDS011;17930;48.592;8.868;2024-02-21T11:58:17;8.73;;;4.83;;
6828;SDS011;17930;48.592;8.868;2024-02-21T12:00:43;5.80;;;4.13;;
6828;SDS011;17930;48.592;8.868;2024-02-21T12:03:11;7.43;;;3.97;;
6828;SDS011;17930;48.592;8.868;2024-02-21T12:05:39;3.93;;;1.80;;
6828;SDS011;17930;48.592;8.868;2024-02-21T12:08:07;4.37;;;1.87;;
6828;SDS011;17930;48.592;8.868;2024-02-21T12:10:35;3.47;;;1.47;;
6828;SDS011;17930;48.592;8.868;2024-02-21T12:13:05;5.23;;;1.87;;
6828;SDS011;17930;48.592;8.868;2024-02-21T12:15:33;4.07;;;1.50;;
6828;SDS011;17930;48.592;8.868;2024-02-21T12:18:00;4.40;;;2.63;;
6828;SDS011;17930;48.592;8.868;2024-02-21T12:20:27;4.43;;;2.67;;
6828;SDS011;17930;48.592;8.868;2024-02-21T12:22:55;3.77;;;2.33;;
6828;SDS011;17930;48.592;8.868;2024-02-21T12:25:24;5.40;;;1.73;;
6828;SDS011;17930;48.592;8.868;2024-02-21T12:27:51;5.63;;;2.43;;
6828;SDS011;17930;48.592;8.868;2024-02-21T12:30:18;4.30;;;2.57;;
6828;SDS011;17930;48.592;8.868;2024-02-21T12:32:46;5.40;;;1.93;;
6828;SDS011;17930;48.592;8.868;2024-02-21T12:35:13;5.43;;;3.07;;
6828;SDS011;17930;48.592;8.868;2024-02-21T12:37:40;7.40;;;3.33;;
6828;SDS011;17930;48.592;8.868;2024-02-21T12:40:09;4.60;;;2.20;;
6828;SDS011;17930;48.592;8.868;2024-02-21T12:42:38;4.47;;;2.63;;
6828;SDS011;17930;48.592;8.868;2024-02-21T12:45:06;2.80;;;2.10;;
6828;SDS011;17930;48.592;8.868;2024-02-21T12:47:33;3.20;;;1.70;;
6828;SDS011;17930;48.592;8.868;2024-02-21T12:50:00;3.57;;;1.50;;
6828;SDS011;17930;48.592;8.868;2024-02-21T12:52:28;3.83;;;1.37;;
6828;SDS011;17930;48.592;8.868;2024-02-21T12:54:56;2.10;;;1.37;;
6828;SDS011;17930;48.592;8.868;2024-02-21T12:57:25;3.83;;;1.30;;
6828;SDS011;17930;48.592;8.868;2024-02-21T12:59:52;1.73;;;1.30;;
6828;SDS011;17930;48.592;8.868;2024-02-21T13:02:19;3.23;;;1.90;;
6828;SDS011;17930;48.592;8.868;2024-02-21T13:04:46;4.23;;;1.70;;
6828;SDS011;17930;48.592;8.868;2024-02-21T13:07:13;3.87;;;1.27;;
6828;SDS011;17930;48.592;8.868;2024-02-21T13:09:40;2.33;;;1.13;;
6828;SDS011;17930;48.592;8.868;2024-02-21T13:12:07;1.57;;;1.03;;
6828;SDS011;17930;48.592;8.868;2024-02-21T13:14:35;2.47;;;1.13;;
6828;SDS011;17930;48.592;8.868;2024-02-21T13:17:04;2.83;;;1.07;;
6828;SDS011;17930;48.592;8.868;2024-02-21T13:19:31;2.07;;;1.10;;
6828;SDS011;17930;48.592;8.868;2024-02-21T13:21:58;2.07;;;0.97;;
6828;SDS011;17930;48.592;8.868;2024-02-21T13:24:25;1.87;;;1.00;;
6828;SDS011;17930;48.592;8.868;2024-02-21T13:26:51;1.33;;;0.97;;
6828;SDS011;17930;48.592;8.868;2024-02-21T13:29:19;5.33;;;1.20;;
6828;SDS011;17930;48.592;8.868;2024-02-21T13:31:47;1.73;;;0.93;;
6828;SDS011;17930;48.592;8.868;2024-02-21T13:34:15;1.80;;;1.07;;
6828;SDS011;17930;48.592;8.868;2024-02-21T13:36:43;3.40;;;1.53;;
6828;SDS011;17930;48.592;8.868;2024-02-21T13:39:10;2.20;;;1.10;;
6828;SDS011;17930;48.592;8.868;2024-02-21T13:41:40;3.13;;;1.17;;
6828;SDS011;17930;48.592;8.868;2024-02-21T13:44:08;1.90;;;1.03;;
6828;SDS011;17930;48.592;8.868;2024-02-21T13:46:35;3.30;;;1.30;;
6828;SDS011;17930;48.592;8.868;2024-02-21T13:49:04;2.30;;;1.23;;
6828;SDS011;17930;48.592;8.868;2024-02-21T13:51:33;2.90;;;1.27;;
6828;SDS011;17930;48.592;8.868;2024-02-21T13:54:01;3.50;;;1.20;;
6828;SDS011;17930;48.592;8.868;2024-02-21T13:56:29;1.73;;;1.03;;
6828;SDS011;17930;48.592;8.868;2024-02-21T13:58:55;2.73;;;1.13;;
6828;SDS011;17930;48.592;8.868;2024-02-21T14:01:23;4.80;;;1.63;;
6828;SDS011;17930;48.592;8.868;2024-02-21T14:03:50;2.43;;;1.20;;
6828;SDS011;17930;48.592;8.868;2024-02-21T14:06:18;2.90;;;1.30;;
6828;SDS011;17930;48.592;8.868;2024-02-21T14:08:45;1.80;;;1.07;;
6828;SDS011;17930;48.592;8.868;2024-02-21T14:11:12;3.00;;;1.70;;
6828;SDS011;17930;48.592;8.868;2024-02-21T14:13:40;2.20;;;1.30;;
6828;SDS011;17930;48.592;8.868;2024-02-21T14:16:09;1.80;;;1.23;;
6828;SDS011;17930;48.592;8.868;2024-02-21T14:18:38;2.93;;;1.43;;
6828;SDS011;17930;48.592;8.868;2024-02-21T14:21:06;3.37;;;1.20;;
6828;SDS011;17930;48.592;8.868;2024-02-21T14:23:37;2.20;;;1.27;;
6828;SDS011;17930;48.592;8.868;2024-02-21T14:26:04;2.40;;;1.30;;
6828;SDS011;17930;48.592;8.868;2024-02-21T14:28:31;2.70;;;1.40;;
6828;SDS011;17930;48.592;8.868;2024-02-21T14:30:59;2.87;;;1.70;;
6828;SDS011;17930;48.592;8.868;2024-02-21T14:33:25;3.40;;;1.43;;
6828;SDS011;17930;48.592;8.868;2024-02-21T14:35:52;3.20;;;1.30;;
6828;SDS011;17930;48.592;8.868;2024-02-21T14:38:19;3.00;;;1.40;;
6828;SDS011;17930;48.592;8.868;2024-02-21T14:40:47;4.43;;;1.30;;
6828;SDS011;17930;48.592;8.868;2024-02-21T14:43:14;2.17;;;1.27;;
6828;SDS011;17930;48.592;8.868;2024-02-21T14:45:43;3.83;;;1.70;;
6828;SDS011;17930;48.592;8.868;2024-02-21T14:48:12;2.30;;;1.47;;
6828;SDS011;17930;48.592;8.868;2024-02-21T14:50:40;3.27;;;1.43;;
6828;SDS011;17930;48.592;8.868;2024-02-21T14:53:07;2.40;;;1.40;;
6828;SDS011;17930;48.592;8.868;2024-02-21T14:55:34;2.73;;;1.70;;
6828;SDS011;17930;48.592;8.868;2024-02-21T14:58:02;3.37;;;1.60;;
6828;SDS011;17930;48.592;8.868;2024-02-21T15:00:29;4.33;;;1.30;;
6828;SDS011;17930;48.592;8.868;2024-02-21T15:02:56;2.30;;;1.33;;